sensor_id;sensor_type;location;lat;lon;timestamp;P1;durP1;ratioP1;P2;durP2;ratioP2
65035;SDS011;51603;49.300;8.880;2023-07-20T00:00:28;7.57;;;2.50;;
65035;SDS011;51603;49.300;8.880;2023-07-20T00:03:09;2.90;;;2.53;;
65035;SDS011;51603;49.300;8.880;2023-07-20T00:05:36;3.30;;;1.60;;
65035;SDS011;51603;49.300;8.880;2023-07-20T00:08:01;4.23;;;2.33;;
65035;SDS011;51603;49.300;8.880;2023-07-20T00:10:27;2.50;;;2.17;;
65035;SDS011;51603;49.300;8.880;2023-07-20T00:12:52;5.23;;;1.80;;
65035;SDS011;51603;49.300;8.880;2023-07-20T00:15:18;5.33;;;2.43;;
65035;SDS011;51603;49.300;8.880;2023-07-20T00:17:43;5.13;;;2.13;;
65035;SDS011;51603;49.300;8.880;2023-07-20T00:20:10;2.43;;;1.70;;
65035;SDS011;51603;49.300;8.880;2023-07-20T00:22:36;2.93;;;2.03;;
65035;SDS011;51603;49.300;8.880;2023-07-20T00:25:02;5.47;;;2.30;;
65035;SDS011;51603;49.300;8.880;2023-07-20T00:27:27;3.13;;;1.93;;
65035;SDS011;51603;49.300;8.880;2023-07-20T00:29:53;3.30;;;2.23;;
65035;SDS011;51603;49.300;8.880;2023-07-20T00:32:19;3.60;;;2.37;;
65035;SDS011;51603;49.300;8.880;2023-07-20T00:34:44;3.60;;;2.23;;
65035;SDS011;51603;49.300;8.880;2023-07-20T00:37:10;3.83;;;2.20;;
65035;SDS011;51603;49.300;8.880;2023-07-20T00:39:35;3.57;;;2.40;;
65035;SDS011;51603;49.300;8.880;2023-07-20T00:42:01;4.03;;;2.10;;
65035;SDS011;51603;49.300;8.880;2023-07-20T00:44:26;4.03;;;2.50;;
65035;SDS011;51603;49.300;8.880;2023-07-20T00:46:52;4.77;;;2.20;;
65035;SDS011;51603;49.300;8.880;2023-07-20T00:49:17;5.63;;;2.83;;
65035;SDS011;51603;49.300;8.880;2023-07-20T00:51:46;2.27;;;1.73;;
65035;SDS011;51603;49.300;8.880;2023-07-20T00:54:12;7.37;;;2.00;;
65035;SDS011;51603;49.300;8.880;2023-07-20T00:56:38;2.87;;;2.13;;
65035;SDS011;51603;49.300;8.880;2023-07-20T00:59:04;4.60;;;2.20;;
65035;SDS011;51603;49.300;8.880;2023-07-20T01:01:30;4.70;;;2.70;;
65035;SDS011;51603;49.300;8.880;2023-07-20T01:03:55;2.70;;;2.17;;
65035;SDS011;51603;49.300;8.880;2023-07-20T01:06:35;3.87;;;2.60;;
65035;SDS011;51603;49.300;8.880;2023-07-20T01:09:16;4.83;;;2.23;;
65035;SDS011;51603;49.300;8.880;2023-07-20T01:11:54;3.40;;;2.50;;
65035;SDS011;51603;49.300;8.880;2023-07-20T01:14:23;4.00;;;2.47;;
65035;SDS011;51603;49.300;8.880;2023-07-20T01:16:50;4.30;;;2.30;;
65035;SDS011;51603;49.300;8.880;2023-07-20T01:19:17;4.10;;;2.40;;
65035;SDS011;51603;49.300;8.880;2023-07-20T01:32:38;2.37;;;2.00;;
65035;SDS011;51603;49.300;8.880;2023-07-20T01:35:07;3.43;;;2.73;;
65035;SDS011;51603;49.300;8.880;2023-07-20T01:37:35;4.10;;;2.10;;
65035;SDS011;51603;49.300;8.880;2023-07-20T01:40:02;3.13;;;2.33;;
65035;SDS011;51603;49.300;8.880;2023-07-20T01:42:28;3.93;;;2.10;;
65035;SDS011;51603;49.300;8.880;2023-07-20T01:44:54;4.17;;;2.57;;
65035;SDS011;51603;49.300;8.880;2023-07-20T01:47:20;3.60;;;2.40;;
65035;SDS011;51603;49.300;8.880;2023-07-20T01:49:45;4.50;;;2.40;;
65035;SDS011;51603;49.300;8.880;2023-07-20T01:52:11;3.20;;;2.30;;
65035;SDS011;51603;49.300;8.880;2023-07-20T01:54:36;2.73;;;2.10;;
65035;SDS011;51603;49.300;8.880;2023-07-20T01:57:02;2.73;;;2.03;;
65035;SDS011;51603;49.300;8.880;2023-07-20T01:59:29;4.97;;;2.77;;
65035;SDS011;51603;49.300;8.880;2023-07-20T02:01:54;2.40;;;1.87;;
65035;SDS011;51603;49.300;8.880;2023-07-20T02:04:20;3.43;;;2.20;;
65035;SDS011;51603;49.300;8.880;2023-07-20T02:06:45;3.67;;;2.17;;
65035;SDS011;51603;49.300;8.880;2023-07-20T02:09:11;5.63;;;2.40;;
65035;SDS011;51603;49.300;8.880;2023-07-20T02:11:36;3.03;;;2.03;;
65035;SDS011;51603;49.300;8.880;2023-07-20T02:14:02;4.23;;;2.90;;
65035;SDS011;51603;49.300;8.880;2023-07-20T02:16:27;2.90;;;2.50;;
65035;SDS011;51603;49.300;8.880;2023-07-20T02:18:53;4.60;;;2.43;;
65035;SDS011;51603;49.300;8.880;2023-07-20T02:21:22;2.87;;;2.20;;
65035;SDS011;51603;49.300;8.880;2023-07-20T02:23:48;3.30;;;2.20;;
65035;SDS011;51603;49.300;8.880;2023-07-20T02:26:13;3.07;;;2.67;;
65035;SDS011;51603;49.300;8.880;2023-07-20T02:28:39;5.53;;;2.67;;
65035;SDS011;51603;49.300;8.880;2023-07-20T02:31:06;3.77;;;2.77;;
65035;SDS011;51603;49.300;8.880;2023-07-20T02:33:31;3.37;;;2.10;;
65035;SDS011;51603;49.300;8.880;2023-07-20T02:35:57;3.97;;;2.50;;
65035;SDS011;51603;49.300;8.880;2023-07-20T02:38:23;5.70;;;2.50;;
65035;SDS011;51603;49.300;8.880;2023-07-20T02:40:49;3.20;;;2.40;;
65035;SDS011;51603;49.300;8.880;2023-07-20T02:43:15;4.93;;;2.50;;
65035;SDS011;51603;49.300;8.880;2023-07-20T02:45:41;5.80;;;2.10;;
65035;SDS011;51603;49.300;8.880;2023-07-20T02:48:07;5.20;;;2.53;;
65035;SDS011;51603;49.300;8.880;2023-07-20T02:50:33;5.00;;;2.30;;
65035;SDS011;51603;49.300;8.880;2023-07-20T02:53:00;4.87;;;2.70;;
65035;SDS011;51603;49.300;8.880;2023-07-20T02:55:26;3.23;;;2.30;;
65035;SDS011;51603;49.300;8.880;2023-07-20T02:57:51;3.70;;;2.50;;
65035;SDS011;51603;49.300;8.880;2023-07-20T03:00:17;4.47;;;3.00;;
65035;SDS011;51603;49.300;8.880;2023-07-20T03:02:44;3.67;;;2.63;;
65035;SDS011;51603;49.300;8.880;2023-07-20T03:05:12;3.70;;;2.67;;
65035;SDS011;51603;49.300;8.880;2023-07-20T03:07:38;5.87;;;2.47;;
65035;SDS011;51603;49.300;8.880;2023-07-20T03:10:04;3.27;;;2.40;;
65035;SDS011;51603;49.300;8.880;2023-07-20T03:12:34;4.17;;;2.60;;
65035;SDS011;51603;49.300;8.880;2023-07-20T03:15:03;3.80;;;2.73;;
65035;SDS011;51603;49.300;8.880;2023-07-20T03:17:29;3.43;;;2.30;;
65035;SDS011;51603;49.300;8.880;2023-07-20T03:19:55;4.50;;;2.53;;
65035;SDS011;51603;49.300;8.880;2023-07-20T03:22:21;3.70;;;1.90;;
65035;SDS011;51603;49.300;8.880;2023-07-20T03:24:47;6.40;;;2.90;;
65035;SDS011;51603;49.300;8.880;2023-07-20T03:27:12;5.17;;;2.77;;
65035;SDS011;51603;49.300;8.880;2023-07-20T03:29:38;3.10;;;2.20;;
65035;SDS011;51603;49.300;8.880;2023-07-20T03:32:04;4.30;;;2.47;;
65035;SDS011;51603;49.300;8.880;2023-07-20T03:34:30;4.00;;;2.30;;
65035;SDS011;51603;49.300;8.880;2023-07-20T03:36:56;4.90;;;2.63;;
65035;SDS011;51603;49.300;8.880;2023-07-20T03:39:22;5.87;;;3.30;;
65035;SDS011;51603;49.300;8.880;2023-07-20T03:41:48;3.37;;;2.17;;
65035;SDS011;51603;49.300;8.880;2023-07-20T03:44:13;4.60;;;2.70;;
65035;SDS011;51603;49.300;8.880;2023-07-20T03:46:39;3.90;;;2.90;;
65035;SDS011;51603;49.300;8.880;2023-07-20T03:49:04;3.83;;;2.80;;
65035;SDS011;51603;49.300;8.880;2023-07-20T03:51:31;4.10;;;2.80;;
65035;SDS011;51603;49.300;8.880;2023-07-20T03:53:57;2.90;;;2.60;;
65035;SDS011;51603;49.300;8.880;2023-07-20T03:56:22;3.00;;;2.80;;
65035;SDS011;51603;49.300;8.880;2023-07-20T03:58:49;4.00;;;3.03;;
65035;SDS011;51603;49.300;8.880;2023-07-20T04:01:14;3.90;;;2.97;;
65035;SDS011;51603;49.300;8.880;2023-07-20T04:03:41;4.47;;;3.10;;
65035;SDS011;51603;49.300;8.880;2023-07-20T04:06:08;4.50;;;2.90;;
65035;SDS011;51603;49.300;8.880;2023-07-20T04:08:33;5.17;;;2.63;;
65035;SDS011;51603;49.300;8.880;2023-07-20T04:11:03;3.70;;;3.40;;
65035;SDS011;51603;49.300;8.880;2023-07-20T04:13:29;4.37;;;3.10;;
65035;SDS011;51603;49.300;8.880;2023-07-20T04:15:58;3.73;;;3.00;;
65035;SDS011;51603;49.300;8.880;2023-07-20T04:18:23;3.30;;;3.00;;
65035;SDS011;51603;49.300;8.880;2023-07-20T04:20:49;7.17;;;3.10;;
65035;SDS011;51603;49.300;8.880;2023-07-20T04:23:14;3.87;;;3.47;;
65035;SDS011;51603;49.300;8.880;2023-07-20T04:25:40;4.00;;;3.40;;
65035;SDS011;51603;49.300;8.880;2023-07-20T04:28:06;7.00;;;2.97;;
65035;SDS011;51603;49.300;8.880;2023-07-20T04:30:35;8.13;;;2.93;;
65035;SDS011;51603;49.300;8.880;2023-07-20T04:33:02;3.20;;;2.90;;
65035;SDS011;51603;49.300;8.880;2023-07-20T04:38:13;3.00;;;2.50;;
65035;SDS011;51603;49.300;8.880;2023-07-20T04:40:40;4.10;;;2.70;;
65035;SDS011;51603;49.300;8.880;2023-07-20T04:43:06;5.67;;;2.80;;
65035;SDS011;51603;49.300;8.880;2023-07-20T04:45:32;3.23;;;2.20;;
65035;SDS011;51603;49.300;8.880;2023-07-20T04:47:57;5.77;;;3.03;;
65035;SDS011;51603;49.300;8.880;2023-07-20T04:50:23;5.03;;;2.73;;
65035;SDS011;51603;49.300;8.880;2023-07-20T04:52:50;3.30;;;2.30;;
65035;SDS011;51603;49.300;8.880;2023-07-20T04:55:15;2.87;;;2.37;;
65035;SDS011;51603;49.300;8.880;2023-07-20T04:57:41;3.67;;;2.47;;
65035;SDS011;51603;49.300;8.880;2023-07-20T05:00:07;3.20;;;2.50;;
65035;SDS011;51603;49.300;8.880;2023-07-20T05:02:35;3.40;;;2.83;;
65035;SDS011;51603;49.300;8.880;2023-07-20T05:05:01;3.33;;;2.47;;
65035;SDS011;51603;49.300;8.880;2023-07-20T05:07:30;4.03;;;2.53;;
65035;SDS011;51603;49.300;8.880;2023-07-20T05:09:56;3.47;;;2.70;;
65035;SDS011;51603;49.300;8.880;2023-07-20T05:12:22;4.40;;;2.80;;
65035;SDS011;51603;49.300;8.880;2023-07-20T05:14:48;4.13;;;2.27;;
65035;SDS011;51603;49.300;8.880;2023-07-20T05:17:13;3.90;;;2.70;;
65035;SDS011;51603;49.300;8.880;2023-07-20T05:19:39;3.30;;;2.33;;
65035;SDS011;51603;49.300;8.880;2023-07-20T05:22:04;3.80;;;2.60;;
65035;SDS011;51603;49.300;8.880;2023-07-20T05:24:30;4.00;;;2.67;;
65035;SDS011;51603;49.300;8.880;2023-07-20T05:26:56;3.70;;;2.40;;
65035;SDS011;51603;49.300;8.880;2023-07-20T05:29:23;7.93;;;2.43;;
65035;SDS011;51603;49.300;8.880;2023-07-20T05:31:49;3.57;;;2.10;;
65035;SDS011;51603;49.300;8.880;2023-07-20T05:34:14;3.10;;;2.40;;
65035;SDS011;51603;49.300;8.880;2023-07-20T05:36:40;3.00;;;2.70;;
65035;SDS011;51603;49.300;8.880;2023-07-20T05:39:06;3.47;;;2.60;;
65035;SDS011;51603;49.300;8.880;2023-07-20T05:41:31;3.80;;;2.47;;
65035;SDS011;51603;49.300;8.880;2023-07-20T05:43:57;5.10;;;2.70;;
65035;SDS011;51603;49.300;8.880;2023-07-20T05:46:22;5.10;;;2.63;;
65035;SDS011;51603;49.300;8.880;2023-07-20T05:48:49;3.33;;;2.60;;
65035;SDS011;51603;49.300;8.880;2023-07-20T05:51:15;4.40;;;2.70;;
65035;SDS011;51603;49.300;8.880;2023-07-20T05:53:40;2.73;;;2.37;;
65035;SDS011;51603;49.300;8.880;2023-07-20T05:56:06;4.20;;;2.23;;
65035;SDS011;51603;49.300;8.880;2023-07-20T05:58:35;4.23;;;2.50;;
65035;SDS011;51603;49.300;8.880;2023-07-20T06:01:01;6.30;;;2.50;;
65035;SDS011;51603;49.300;8.880;2023-07-20T06:03:27;3.53;;;2.70;;
65035;SDS011;51603;49.300;8.880;2023-07-20T06:05:57;4.57;;;2.50;;
65035;SDS011;51603;49.300;8.880;2023-07-20T06:08:24;3.00;;;2.30;;
65035;SDS011;51603;49.300;8.880;2023-07-20T06:10:50;3.63;;;2.73;;
65035;SDS011;51603;49.300;8.880;2023-07-20T06:13:17;3.53;;;2.30;;
65035;SDS011;51603;49.300;8.880;2023-07-20T06:15:42;3.97;;;2.50;;
65035;SDS011;51603;49.300;8.880;2023-07-20T06:18:08;3.13;;;2.30;;
65035;SDS011;51603;49.300;8.880;2023-07-20T06:20:34;3.00;;;2.50;;
65035;SDS011;51603;49.300;8.880;2023-07-20T06:22:59;3.37;;;1.73;;
65035;SDS011;51603;49.300;8.880;2023-07-20T06:25:25;3.93;;;2.50;;
65035;SDS011;51603;49.300;8.880;2023-07-20T06:27:51;4.60;;;2.70;;
65035;SDS011;51603;49.300;8.880;2023-07-20T06:30:17;3.20;;;2.30;;
65035;SDS011;51603;49.300;8.880;2023-07-20T06:32:43;4.00;;;2.60;;
65035;SDS011;51603;49.300;8.880;2023-07-20T06:35:08;3.43;;;2.00;;
65035;SDS011;51603;49.300;8.880;2023-07-20T06:37:34;3.97;;;2.67;;
65035;SDS011;51603;49.300;8.880;2023-07-20T06:40:01;2.50;;;1.83;;
65035;SDS011;51603;49.300;8.880;2023-07-20T06:42:27;2.73;;;2.23;;
65035;SDS011;51603;49.300;8.880;2023-07-20T06:44:53;3.10;;;2.23;;
65035;SDS011;51603;49.300;8.880;2023-07-20T06:47:18;3.97;;;2.50;;
65035;SDS011;51603;49.300;8.880;2023-07-20T06:49:44;3.90;;;2.30;;
65035;SDS011;51603;49.300;8.880;2023-07-20T06:52:09;3.23;;;2.37;;
65035;SDS011;51603;49.300;8.880;2023-07-20T06:54:35;3.77;;;2.57;;
65035;SDS011;51603;49.300;8.880;2023-07-20T06:57:00;2.50;;;2.10;;
65035;SDS011;51603;49.300;8.880;2023-07-20T06:59:27;4.73;;;2.40;;
65035;SDS011;51603;49.300;8.880;2023-07-20T07:01:52;3.80;;;2.20;;
65035;SDS011;51603;49.300;8.880;2023-07-20T07:04:18;3.93;;;2.60;;
65035;SDS011;51603;49.300;8.880;2023-07-20T07:06:43;3.43;;;2.57;;
65035;SDS011;51603;49.300;8.880;2023-07-20T07:09:09;4.70;;;2.30;;
65035;SDS011;51603;49.300;8.880;2023-07-20T07:11:35;2.53;;;1.93;;
65035;SDS011;51603;49.300;8.880;2023-07-20T07:14:00;6.27;;;2.17;;
65035;SDS011;51603;49.300;8.880;2023-07-20T07:16:26;4.03;;;2.30;;
65035;SDS011;51603;49.300;8.880;2023-07-20T07:18:51;2.67;;;2.23;;
65035;SDS011;51603;49.300;8.880;2023-07-20T07:21:17;4.53;;;2.50;;
65035;SDS011;51603;49.300;8.880;2023-07-20T07:23:42;4.33;;;2.00;;
65035;SDS011;51603;49.300;8.880;2023-07-20T07:26:09;3.57;;;2.63;;
65035;SDS011;51603;49.300;8.880;2023-07-20T07:28:34;4.37;;;2.73;;
65035;SDS011;51603;49.300;8.880;2023-07-20T07:31:02;5.60;;;2.30;;
65035;SDS011;51603;49.300;8.880;2023-07-20T07:33:30;3.27;;;1.90;;
65035;SDS011;51603;49.300;8.880;2023-07-20T07:35:56;3.07;;;2.40;;
65035;SDS011;51603;49.300;8.880;2023-07-20T07:38:21;6.40;;;2.53;;
65035;SDS011;51603;49.300;8.880;2023-07-20T07:40:47;4.20;;;2.57;;
65035;SDS011;51603;49.300;8.880;2023-07-20T07:43:12;2.73;;;2.37;;
65035;SDS011;51603;49.300;8.880;2023-07-20T07:45:39;7.33;;;3.13;;
65035;SDS011;51603;49.300;8.880;2023-07-20T07:48:05;4.50;;;2.83;;
65035;SDS011;51603;49.300;8.880;2023-07-20T07:50:31;3.30;;;2.40;;
65035;SDS011;51603;49.300;8.880;2023-07-20T07:52:57;2.30;;;1.80;;
65035;SDS011;51603;49.300;8.880;2023-07-20T07:55:24;4.40;;;2.87;;
65035;SDS011;51603;49.300;8.880;2023-07-20T07:57:51;6.10;;;3.47;;
65035;SDS011;51603;49.300;8.880;2023-07-20T08:00:17;4.13;;;2.13;;
65035;SDS011;51603;49.300;8.880;2023-07-20T08:02:44;4.00;;;2.27;;
65035;SDS011;51603;49.300;8.880;2023-07-20T08:05:11;5.83;;;2.50;;
65035;SDS011;51603;49.300;8.880;2023-07-20T08:07:37;4.70;;;2.20;;
65035;SDS011;51603;49.300;8.880;2023-07-20T08:10:03;3.97;;;2.20;;
65035;SDS011;51603;49.300;8.880;2023-07-20T08:12:29;2.93;;;1.77;;
65035;SDS011;51603;49.300;8.880;2023-07-20T08:14:55;3.07;;;2.10;;
65035;SDS011;51603;49.300;8.880;2023-07-20T08:17:21;3.67;;;2.30;;
65035;SDS011;51603;49.300;8.880;2023-07-20T08:19:46;2.20;;;1.83;;
65035;SDS011;51603;49.300;8.880;2023-07-20T08:22:12;3.47;;;2.17;;
65035;SDS011;51603;49.300;8.880;2023-07-20T08:24:41;2.40;;;1.93;;
65035;SDS011;51603;49.300;8.880;2023-07-20T08:27:08;3.07;;;1.90;;
65035;SDS011;51603;49.300;8.880;2023-07-20T08:29:34;3.53;;;1.93;;
65035;SDS011;51603;49.300;8.880;2023-07-20T08:32:00;5.60;;;1.90;;
65035;SDS011;51603;49.300;8.880;2023-07-20T08:34:26;3.30;;;2.00;;
65035;SDS011;51603;49.300;8.880;2023-07-20T08:36:51;3.37;;;2.00;;
65035;SDS011;51603;49.300;8.880;2023-07-20T08:39:17;2.70;;;2.33;;
65035;SDS011;51603;49.300;8.880;2023-07-20T08:41:43;2.80;;;1.93;;
65035;SDS011;51603;49.300;8.880;2023-07-20T08:44:09;5.43;;;2.03;;
65035;SDS011;51603;49.300;8.880;2023-07-20T08:46:36;3.67;;;2.40;;
65035;SDS011;51603;49.300;8.880;2023-07-20T08:49:03;3.30;;;2.20;;
65035;SDS011;51603;49.300;8.880;2023-07-20T08:51:30;4.27;;;2.27;;
65035;SDS011;51603;49.300;8.880;2023-07-20T08:53:57;2.57;;;1.73;;
65035;SDS011;51603;49.300;8.880;2023-07-20T08:56:23;2.50;;;2.13;;
65035;SDS011;51603;49.300;8.880;2023-07-20T08:58:51;3.70;;;2.10;;
65035;SDS011;51603;49.300;8.880;2023-07-20T09:01:21;2.27;;;1.90;;
65035;SDS011;51603;49.300;8.880;2023-07-20T09:03:47;3.53;;;1.70;;
65035;SDS011;51603;49.300;8.880;2023-07-20T09:06:13;2.80;;;2.07;;
65035;SDS011;51603;49.300;8.880;2023-07-20T09:08:39;4.20;;;2.07;;
65035;SDS011;51603;49.300;8.880;2023-07-20T09:11:06;3.07;;;1.93;;
65035;SDS011;51603;49.300;8.880;2023-07-20T09:13:32;3.27;;;1.70;;
65035;SDS011;51603;49.300;8.880;2023-07-20T09:15:58;3.07;;;2.03;;
65035;SDS011;51603;49.300;8.880;2023-07-20T09:18:29;3.50;;;1.87;;
65035;SDS011;51603;49.300;8.880;2023-07-20T09:21:01;3.03;;;1.87;;
65035;SDS011;51603;49.300;8.880;2023-07-20T09:23:31;4.40;;;1.83;;
65035;SDS011;51603;49.300;8.880;2023-07-20T09:25:58;2.33;;;1.50;;
65035;SDS011;51603;49.300;8.880;2023-07-20T09:28:24;2.20;;;1.43;;
65035;SDS011;51603;49.300;8.880;2023-07-20T09:30:50;2.10;;;1.67;;
65035;SDS011;51603;49.300;8.880;2023-07-20T09:33:21;2.40;;;1.87;;
65035;SDS011;51603;49.300;8.880;2023-07-20T09:35:47;4.23;;;1.90;;
65035;SDS011;51603;49.300;8.880;2023-07-20T09:38:13;2.30;;;1.73;;
65035;SDS011;51603;49.300;8.880;2023-07-20T09:40:40;2.80;;;1.93;;
65035;SDS011;51603;49.300;8.880;2023-07-20T09:43:09;2.73;;;1.77;;
65035;SDS011;51603;49.300;8.880;2023-07-20T09:45:40;1.90;;;1.50;;
65035;SDS011;51603;49.300;8.880;2023-07-20T09:48:07;1.57;;;1.40;;
65035;SDS011;51603;49.300;8.880;2023-07-20T09:50:33;2.33;;;1.60;;
65035;SDS011;51603;49.300;8.880;2023-07-20T09:53:04;3.10;;;1.83;;
65035;SDS011;51603;49.300;8.880;2023-07-20T09:55:30;2.40;;;2.00;;
65035;SDS011;51603;49.300;8.880;2023-07-20T09:57:57;3.97;;;2.30;;
65035;SDS011;51603;49.300;8.880;2023-07-20T10:00:24;4.30;;;2.23;;
65035;SDS011;51603;49.300;8.880;2023-07-20T10:02:49;4.60;;;1.93;;
65035;SDS011;51603;49.300;8.880;2023-07-20T10:05:17;2.40;;;2.20;;
65035;SDS011;51603;49.300;8.880;2023-07-20T10:07:47;2.43;;;1.53;;
65035;SDS011;51603;49.300;8.880;2023-07-20T10:10:15;3.67;;;2.10;;
65035;SDS011;51603;49.300;8.880;2023-07-20T10:12:42;4.03;;;2.47;;
65035;SDS011;51603;49.300;8.880;2023-07-20T10:17:42;3.50;;;2.47;;
65035;SDS011;51603;49.300;8.880;2023-07-20T10:20:18;4.83;;;1.97;;
65035;SDS011;51603;49.300;8.880;2023-07-20T10:22:46;2.27;;;2.07;;
65035;SDS011;51603;49.300;8.880;2023-07-20T10:25:14;2.23;;;1.57;;
65035;SDS011;51603;49.300;8.880;2023-07-20T10:27:41;4.27;;;1.97;;
65035;SDS011;51603;49.300;8.880;2023-07-20T10:30:07;3.77;;;2.43;;
65035;SDS011;51603;49.300;8.880;2023-07-20T10:32:33;2.60;;;1.93;;
65035;SDS011;51603;49.300;8.880;2023-07-20T10:34:59;2.77;;;1.90;;
65035;SDS011;51603;49.300;8.880;2023-07-20T10:37:46;3.73;;;1.80;;
65035;SDS011;51603;49.300;8.880;2023-07-20T10:43:03;2.53;;;1.67;;
65035;SDS011;51603;49.300;8.880;2023-07-20T10:45:33;4.80;;;2.33;;
65035;SDS011;51603;49.300;8.880;2023-07-20T10:48:20;1.87;;;1.60;;
65035;SDS011;51603;49.300;8.880;2023-07-20T10:51:29;4.07;;;1.90;;
65035;SDS011;51603;49.300;8.880;2023-07-20T10:53:38;1.90;;;1.70;;
65035;SDS011;51603;49.300;8.880;2023-07-20T10:56:08;4.60;;;2.33;;
65035;SDS011;51603;49.300;8.880;2023-07-20T10:58:36;3.67;;;1.93;;
65035;SDS011;51603;49.300;8.880;2023-07-20T11:01:03;5.63;;;1.77;;
65035;SDS011;51603;49.300;8.880;2023-07-20T11:03:36;2.73;;;2.00;;
65035;SDS011;51603;49.300;8.880;2023-07-20T11:11:29;1.80;;;1.50;;
65035;SDS011;51603;49.300;8.880;2023-07-20T11:13:56;3.10;;;1.73;;
65035;SDS011;51603;49.300;8.880;2023-07-20T11:16:33;6.10;;;2.20;;
65035;SDS011;51603;49.300;8.880;2023-07-20T11:19:04;2.40;;;1.70;;
65035;SDS011;51603;49.300;8.880;2023-07-20T11:21:40;3.63;;;2.20;;
65035;SDS011;51603;49.300;8.880;2023-07-20T11:24:07;3.47;;;1.73;;
65035;SDS011;51603;49.300;8.880;2023-07-20T11:26:50;3.60;;;2.40;;
65035;SDS011;51603;49.300;8.880;2023-07-20T11:29:17;2.57;;;1.90;;
65035;SDS011;51603;49.300;8.880;2023-07-20T11:31:44;3.77;;;2.23;;
65035;SDS011;51603;49.300;8.880;2023-07-20T11:34:11;3.10;;;1.90;;
65035;SDS011;51603;49.300;8.880;2023-07-20T11:36:47;4.23;;;1.70;;
65035;SDS011;51603;49.300;8.880;2023-07-20T11:39:15;5.50;;;2.00;;
65035;SDS011;51603;49.300;8.880;2023-07-20T11:41:48;2.63;;;1.80;;
65035;SDS011;51603;49.300;8.880;2023-07-20T11:44:19;2.93;;;1.80;;
65035;SDS011;51603;49.300;8.880;2023-07-20T11:46:59;2.80;;;1.80;;
65035;SDS011;51603;49.300;8.880;2023-07-20T11:49:35;2.40;;;1.67;;
65035;SDS011;51603;49.300;8.880;2023-07-20T11:52:05;2.63;;;1.70;;
65035;SDS011;51603;49.300;8.880;2023-07-20T11:54:32;4.83;;;1.53;;
65035;SDS011;51603;49.300;8.880;2023-07-20T11:57:03;5.50;;;2.10;;
65035;SDS011;51603;49.300;8.880;2023-07-20T11:59:30;2.40;;;1.67;;
65035;SDS011;51603;49.300;8.880;2023-07-20T12:01:56;3.73;;;1.70;;
65035;SDS011;51603;49.300;8.880;2023-07-20T12:04:23;2.53;;;1.60;;
65035;SDS011;51603;49.300;8.880;2023-07-20T12:06:48;4.03;;;1.80;;
65035;SDS011;51603;49.300;8.880;2023-07-20T12:09:14;2.80;;;1.40;;
65035;SDS011;51603;49.300;8.880;2023-07-20T12:11:42;2.97;;;1.47;;
65035;SDS011;51603;49.300;8.880;2023-07-20T12:14:10;2.80;;;1.30;;
65035;SDS011;51603;49.300;8.880;2023-07-20T12:16:36;3.77;;;2.13;;
65035;SDS011;51603;49.300;8.880;2023-07-20T12:19:06;2.37;;;1.80;;
65035;SDS011;51603;49.300;8.880;2023-07-20T12:21:34;1.77;;;1.40;;
65035;SDS011;51603;49.300;8.880;2023-07-20T12:24:02;2.60;;;1.83;;
65035;SDS011;51603;49.300;8.880;2023-07-20T12:26:29;1.90;;;1.63;;
65035;SDS011;51603;49.300;8.880;2023-07-20T12:28:55;2.90;;;1.70;;
65035;SDS011;51603;49.300;8.880;2023-07-20T12:31:21;2.17;;;1.27;;
65035;SDS011;51603;49.300;8.880;2023-07-20T12:33:48;2.10;;;1.60;;
65035;SDS011;51603;49.300;8.880;2023-07-20T12:36:14;1.93;;;1.67;;
65035;SDS011;51603;49.300;8.880;2023-07-20T12:38:39;1.83;;;1.30;;
65035;SDS011;51603;49.300;8.880;2023-07-20T12:41:06;2.80;;;1.77;;
65035;SDS011;51603;49.300;8.880;2023-07-20T12:43:32;3.30;;;1.97;;
65035;SDS011;51603;49.300;8.880;2023-07-20T12:45:58;2.87;;;1.90;;
65035;SDS011;51603;49.300;8.880;2023-07-20T12:48:24;3.00;;;1.93;;
65035;SDS011;51603;49.300;8.880;2023-07-20T12:50:50;6.20;;;1.70;;
65035;SDS011;51603;49.300;8.880;2023-07-20T12:53:16;2.40;;;1.47;;
65035;SDS011;51603;49.300;8.880;2023-07-20T12:55:41;2.03;;;1.67;;
65035;SDS011;51603;49.300;8.880;2023-07-20T12:58:07;3.80;;;1.90;;
65035;SDS011;51603;49.300;8.880;2023-07-20T13:00:33;4.93;;;1.70;;
65035;SDS011;51603;49.300;8.880;2023-07-20T13:02:59;3.00;;;1.50;;
65035;SDS011;51603;49.300;8.880;2023-07-20T13:05:29;2.63;;;1.70;;
65035;SDS011;51603;49.300;8.880;2023-07-20T13:07:58;2.73;;;2.17;;
65035;SDS011;51603;49.300;8.880;2023-07-20T13:10:24;3.73;;;1.40;;
65035;SDS011;51603;49.300;8.880;2023-07-20T13:12:50;2.87;;;1.67;;
65035;SDS011;51603;49.300;8.880;2023-07-20T13:15:15;2.07;;;1.70;;
65035;SDS011;51603;49.300;8.880;2023-07-20T13:17:42;3.43;;;1.80;;
65035;SDS011;51603;49.300;8.880;2023-07-20T13:20:09;1.97;;;1.53;;
65035;SDS011;51603;49.300;8.880;2023-07-20T13:22:36;3.00;;;1.30;;
65035;SDS011;51603;49.300;8.880;2023-07-20T13:25:02;1.53;;;1.30;;
65035;SDS011;51603;49.300;8.880;2023-07-20T13:27:28;4.37;;;1.60;;
65035;SDS011;51603;49.300;8.880;2023-07-20T13:29:55;2.10;;;1.60;;
65035;SDS011;51603;49.300;8.880;2023-07-20T13:32:21;4.50;;;1.97;;
65035;SDS011;51603;49.300;8.880;2023-07-20T13:34:47;4.10;;;1.83;;
65035;SDS011;51603;49.300;8.880;2023-07-20T13:37:13;2.87;;;1.70;;
65035;SDS011;51603;49.300;8.880;2023-07-20T13:39:39;2.70;;;1.60;;
65035;SDS011;51603;49.300;8.880;2023-07-20T13:42:05;1.97;;;1.57;;
65035;SDS011;51603;49.300;8.880;2023-07-20T13:44:31;3.57;;;1.70;;
65035;SDS011;51603;49.300;8.880;2023-07-20T13:46:57;2.47;;;1.53;;
65035;SDS011;51603;49.300;8.880;2023-07-20T13:49:23;1.83;;;1.47;;
65035;SDS011;51603;49.300;8.880;2023-07-20T13:51:49;7.40;;;1.63;;
65035;SDS011;51603;49.300;8.880;2023-07-20T13:54:14;2.03;;;1.67;;
65035;SDS011;51603;49.300;8.880;2023-07-20T13:56:40;1.90;;;1.33;;
65035;SDS011;51603;49.300;8.880;2023-07-20T13:59:06;2.87;;;1.60;;
65035;SDS011;51603;49.300;8.880;2023-07-20T14:01:32;2.27;;;1.30;;
65035;SDS011;51603;49.300;8.880;2023-07-20T14:04:01;2.20;;;1.30;;
65035;SDS011;51603;49.300;8.880;2023-07-20T14:06:30;1.50;;;1.23;;
65035;SDS011;51603;49.300;8.880;2023-07-20T14:08:57;2.40;;;1.50;;
65035;SDS011;51603;49.300;8.880;2023-07-20T14:11:24;2.60;;;1.63;;
65035;SDS011;51603;49.300;8.880;2023-07-20T14:13:50;2.50;;;1.63;;
65035;SDS011;51603;49.300;8.880;2023-07-20T14:16:22;2.80;;;1.70;;
65035;SDS011;51603;49.300;8.880;2023-07-20T14:18:48;1.90;;;1.30;;
65035;SDS011;51603;49.300;8.880;2023-07-20T14:21:17;2.50;;;1.80;;
65035;SDS011;51603;49.300;8.880;2023-07-20T14:23:45;2.57;;;1.87;;
65035;SDS011;51603;49.300;8.880;2023-07-20T14:26:11;3.53;;;1.30;;
65035;SDS011;51603;49.300;8.880;2023-07-20T14:28:37;4.03;;;2.00;;
65035;SDS011;51603;49.300;8.880;2023-07-20T14:31:03;2.57;;;1.40;;
65035;SDS011;51603;49.300;8.880;2023-07-20T14:33:28;2.30;;;1.50;;
65035;SDS011;51603;49.300;8.880;2023-07-20T14:35:54;1.97;;;1.23;;
65035;SDS011;51603;49.300;8.880;2023-07-20T14:38:19;3.53;;;2.10;;
65035;SDS011;51603;49.300;8.880;2023-07-20T14:40:45;3.13;;;1.70;;
65035;SDS011;51603;49.300;8.880;2023-07-20T14:43:10;2.17;;;1.50;;
65035;SDS011;51603;49.300;8.880;2023-07-20T14:45:36;2.43;;;1.30;;
65035;SDS011;51603;49.300;8.880;2023-07-20T14:48:03;2.10;;;1.40;;
65035;SDS011;51603;49.300;8.880;2023-07-20T14:50:29;3.20;;;1.83;;
65035;SDS011;51603;49.300;8.880;2023-07-20T14:52:55;2.47;;;1.50;;
65035;SDS011;51603;49.300;8.880;2023-07-20T14:55:20;1.80;;;1.50;;
65035;SDS011;51603;49.300;8.880;2023-07-20T14:57:47;1.73;;;1.23;;
65035;SDS011;51603;49.300;8.880;2023-07-20T15:00:13;2.43;;;1.50;;
65035;SDS011;51603;49.300;8.880;2023-07-20T15:02:40;2.20;;;1.57;;
65035;SDS011;51603;49.300;8.880;2023-07-20T15:05:06;2.77;;;1.40;;
65035;SDS011;51603;49.300;8.880;2023-07-20T15:07:32;1.90;;;1.23;;
65035;SDS011;51603;49.300;8.880;2023-07-20T15:09:58;3.13;;;1.63;;